Terminal Aerodrome Forecast
Issued by NWS Wilmington, OH

Current Version | Previous Version | Graphics & Text | Print | Product List | Glossary On
Versions: 1 2 3 4 5 6 7 8 9 10 11 12 13 14 15 16 17 18 19 20 21 22 23 24 25 26 27
685
FTUS41 KILN 200309 AAA
TAFCMH
TAF AMD
KCMH 200309Z 2003/2024 21004KT P6SM VCSH BKN040
     FM200600 VRB03KT P6SM BKN015
     FM201000 VRB03KT 5SM BR BKN012
     FM201300 31004KT P6SM SCT025 BKN250
     FM201800 02004KT P6SM BKN040=

USA.gov is the U.S. government's official web portal to all federal, state and local government web resources and services.